Logo AVAMET
Benvolgut visitant, si us plau, ingressa Recuperar contrasenya
AVAMET paisatges

Inforatge Dénia Madrigueres

Dades diàries. Acumulats / Últims 30 dies disponibles

Data Temperatura (°C) Humitat rel. (%) Pressió rel. (hPa) Vent (km/h) Precipitació
Mínima Mitjana Màxima Amplitud
tèrmica
Mínima Mitjana Màxima Mínima Mitjana Màxima Predom. Mitjana Ràfega
màxima
Total
(mm)
Índex-n
Mínima Mitjana Màxima Mínima Mitjana Màxima n
0 a 1
P0 max
mm 5'
Dades mensuals acumulades fins l'últim dia disponible
02/2020 6,7 11,1 15,2 15,5 15,1 20,8 26,3 19,6 28 72 96 1.021 1.026 1.032   2,3 37,0 0,4
Dades anuals acumulades fins l'últim dia disponible
2020 2,5 9,1 15,8 13,2 13,3 17,8 26,3 23,8 28 75 98 1.012 1.025 1.034   3,5 75,6 139,2
Últims 30 dies disponibles
15-02-2020 8,7     14,5     21,4 12,7 57 80 94 1.024 1.026 1.028 SW 2,4 22,5 0,0
14-02-2020 11,3     15,2     19,4 8,1 53 72 86 1.023 1.025 1.026 E 2,1 20,9 0,0
13-02-2020 11,4     16,3     22,4 11,0 54 75 95 1.021 1.022 1.024 SW 1,3 12,9 0,0
12-02-2020 11,9     14,8     18,3 6,4 65 84 96 1.023 1.024 1.026 NNW 1,4 14,5 0,0
11-02-2020 12,8     16,6     22,4 9,6 46 69 96 1.021 1.024 1.026 E 2,3 19,3 0,0
10-02-2020 13,1     18,6     24,8 11,7 44 56 73 1.026 1.028 1.031 WSW 2,9 17,7 0,0
09-02-2020 10,7     14,2     18,7 8,0 61 79 94 1.027 1.029 1.032 WNW 3,2 27,4 0,0
08-02-2020 6,8     11,9     16,8 10,0 68 83 93 1.024 1.025 1.028 E 1,8 24,1 0,0
07-02-2020 8,5     11,6     15,1 6,6 63 79 89 1.023 1.025 1.026 NNW 1,3 16,1 0,0
06-02-2020 6,7     11,1     15,7 9,0 56 82 94 1.025 1.027 1.029 SE 2,1 25,7 0,0
05-02-2020 10,9     13,1     17,9 7,0 62 80 92 1.027 1.029 1.031 E 4,2 33,8 0,4
04-02-2020 13,8     19,7     26,3 12,5 28 49 74 1.022 1.025 1.027 WNW 2,6 30,6 0,0
03-02-2020 11,6     18,2     25,7 14,1 38 65 85 1.026 1.028 1.030 E 1,1 16,1 0,0
02-02-2020 13,7     18,2     23,2 9,5 51 66 84 1.026 1.027 1.029 WNW 1,3 14,5 0,0
01-02-2020 15,2     19,0     23,7 8,5 50 63 74 1.021 1.023 1.026 WNW 5,0 37,0 0,0
31-01-2020 15,7     18,0     21,8 6,1 52 58 65 1.021 1.022 1.024 ONO 8,2 30,6 0,0
30-01-2020 13,9     17,6     21,7 7,8 42 57 71 1.020 1.022 1.024 WNW 3,9 27,4 0,0
29-01-2020 15,8     18,3     22,7 6,9 49 59 67 1.021 1.022 1.023 WNW 7,4 32,2 0,0
28-01-2020 13,7     16,9     19,8 6,1 52 60 67 1.021 1.022 1.023 WNW 5,3 25,7 0,0
27-01-2020 8,5     13,4     17,3 8,8 45 61 76 1.021 1.023 1.025 WNW 3,5 29,0 0,0
26-01-2020 9,1     12,7     17,8 8,7 55 77 95 1.019 1.021 1.025 WNW 2,4 27,4 0,2
25-01-2020 10,4     12,3     14,9 4,5 82 91 96 1.018 1.019 1.021 WNW 1,8 19,3 0,0
24-01-2020 9,3     11,6     14,2 4,9 85 91 95 1.021 1.022 1.023 NNW 1,3 14,5 0,0
23-01-2020 6,5     10,3     14,1 7,6 80 88 94 1.019 1.021 1.023 WSW 0,8 9,7 0,0
22-01-2020 8,3     10,7     14,6 6,3 85 91 95 1.017 1.019 1.020 WNW 1,4 24,1 14,4 0,36 3,70
21-01-2020 8,9     13,0     16,6 7,7 67 79 88 1.012 1.015 1.019 E 9,0 56,3 19,6
20-01-2020 7,8     10,1     13,3 5,5 91 96 98 1.017 1.018 1.020 ESE 24,1 75,6 71,2 0,69 11,10
19-01-2020 8,7     11,4     15,3 6,6 65 81 96 1.014 1.017 1.020 WNW 16,1 74,0 27,8 0,64 2,20
18-01-2020 10,6     14,2     18,6 8,0 49 64 78 1.020 1.027 1.032 SW 2,1 19,3 0,0
17-01-2020 8,5     14,7     19,8 11,3 40 57 90 1.027 1.029 1.032 WNW 5,3 35,4 0,0
Últims 13 mesos disponibles
01/2020 2,5 8,1 15,8 12,1 13,3 16,3 22,7 20,2 57 77 96 1.015 1.025 1.032 WNW 4,0 75,6 138,8
12/2019 6,4 11,2 19,7 14,5 13,8 18,4 25,5 19,1 50 72 91 1.004 1.016 1.033 WNW 5,0 66,0 129,6
11/2019 6,6 13,0 21,9 16,5 15,3 20,1 27,7 21,1 42 56 79 999 1.011 1.018 WNW 8,1 54,7 10,6
10/2019 11,6 16,7 21,4 20,9 16,9 25,1 34,1 22,5 45 70 87 1.008 1.016 1.022 SSO 3,6 41,8 81,6
09/2019 14,5 20,6 24,6 24,5 24,0 28,3 35,2 20,7 50 75 92 1.010 1.017 1.023 SSO 5,7 70,9 181,4
08/2019 19,6 23,0 27,1 27,3 27,1 32,0 39,8 20,2 50 69 83 1.010 1.015 1.020 S 5,8 48,3 39,0
07/2019 21,5 23,2 26,9 27,4 27,7 31,7 38,2 16,7 44 67 84 1.006 1.014 1.021 S 6,2 53,7 1,6
06/2019 13,9 18,5 22,9 23,2 20,9 27,8 37,7 23,8 36 65 86 1.009 1.015 1.022 SSE 6,6 55,6 0,0
05/2019 10,6 15,0 20,6 19,4 18,9 24,1 31,5 20,9 49 67 85 1.005 1.015 1.024 S 5,8 55,6 10,0
04/2019 10,1 12,3 16,7 16,0 14,9 20,2 28,8 18,7 41 68 96 1.000 1.013 1.025 SSO 7,1 56,3 282,0
03/2019 6,9 10,1 16,1 15,1 14,3 19,7 28,0 21,1 28 63 90 1.011 1.023 1.030 S 4,9 53,7 46,0
02/2019 4,9 8,0 12,1 12,8 12,8 17,5 23,7 18,8 38 65 85 996 1.025 1.033 S 4,5 64,8 0,2
01/2019 1,9 7,5 14,1 12,0 12,1 16,5 21,8 19,9 41 61 85 1.003 1.019 1.030 SSO 4,8 63,0 3,6
Tots els anys disponibles
2019 1,9 15,0 27,1 19,2 12,1 23,5 39,8 37,9 28 67 96 996 1.017 1.033 S 5,7 70,9 785,6
2018 2,9 15,2 27,2 19,1 8,3 23,2 37,9 35,0 34 67 94 993 1.016 1.034 S 5,5 66,7 612,4
2017 3,3 15,8 27,2 20,0 12,4 24,3 37,1 33,8 30 69 94 998 1.018 1.035 S 3,2 61,1 453,0
Temperatura (°C)
Humitat relativa (%)
Velocitat del vent i ràfega màxima (km/h)
Direcció del vent (°)
Pressió (hPa)
Precipitació (mm)
Nota sobre les dades: s'avisa a l'usuari de la provisionalitat i no oficialitat d'aquestes dades
Logo AVAMET blanc
Web allotjada a Sollutia
Llicència de Creative CommonsLa web d'AVAMET i els seus continguts estan subjectes a una llicència de
Reconeixement - No Comercial - Compartir igual
Últimes estacions:  Sorita (AVAMET), Massalavés - Ajuntament (Soci/Inforatge), Albuixech - Polígon (Inforatge), La Torre d'en Besora (Ajuntament soci), Xixona - Sogorb Barranc Blanc (Soci), Pedreguer - Patronat (Soci) - - -